sensor_id;sensor_type;location;lat;lon;timestamp;P1;durP1;ratioP1;P2;durP2;ratioP2
2388;SDS011;1205;47.984;7.668;2022-09-01T00:02:00;19.20;;;12.87;;
2388;SDS011;1205;47.984;7.668;2022-09-01T00:04:32;19.07;;;12.77;;
2388;SDS011;1205;47.984;7.668;2022-09-01T00:07:03;16.50;;;12.77;;
2388;SDS011;1205;47.984;7.668;2022-09-01T00:09:32;15.47;;;11.60;;
2388;SDS011;1205;47.984;7.668;2022-09-01T00:11:58;18.77;;;11.80;;
2388;SDS011;1205;47.984;7.668;2022-09-01T00:14:26;16.57;;;11.57;;
2388;SDS011;1205;47.984;7.668;2022-09-01T00:16:53;14.73;;;12.30;;
2388;SDS011;1205;47.984;7.668;2022-09-01T00:19:20;15.40;;;11.37;;
2388;SDS011;1205;47.984;7.668;2022-09-01T00:21:47;13.00;;;11.50;;
2388;SDS011;1205;47.984;7.668;2022-09-01T00:24:13;20.10;;;13.37;;
2388;SDS011;1205;47.984;7.668;2022-09-01T00:26:41;15.93;;;11.17;;
2388;SDS011;1205;47.984;7.668;2022-09-01T00:29:07;13.53;;;10.30;;
2388;SDS011;1205;47.984;7.668;2022-09-01T00:31:33;13.20;;;10.70;;
2388;SDS011;1205;47.984;7.668;2022-09-01T00:34:00;11.30;;;10.20;;
2388;SDS011;1205;47.984;7.668;2022-09-01T00:36:26;10.27;;;9.27;;
2388;SDS011;1205;47.984;7.668;2022-09-01T00:38:52;13.23;;;9.87;;
2388;SDS011;1205;47.984;7.668;2022-09-01T00:41:19;11.30;;;8.93;;
2388;SDS011;1205;47.984;7.668;2022-09-01T00:43:49;9.67;;;8.40;;
2388;SDS011;1205;47.984;7.668;2022-09-01T00:46:21;9.40;;;8.50;;
2388;SDS011;1205;47.984;7.668;2022-09-01T00:48:52;12.57;;;9.90;;
2388;SDS011;1205;47.984;7.668;2022-09-01T00:51:37;18.67;;;9.27;;
2388;SDS011;1205;47.984;7.668;2022-09-01T00:54:07;10.93;;;9.70;;
2388;SDS011;1205;47.984;7.668;2022-09-01T00:56:36;11.97;;;9.30;;
2388;SDS011;1205;47.984;7.668;2022-09-01T00:59:04;9.83;;;8.93;;
2388;SDS011;1205;47.984;7.668;2022-09-01T01:01:31;11.83;;;9.30;;
2388;SDS011;1205;47.984;7.668;2022-09-01T01:04:00;13.80;;;8.90;;
2388;SDS011;1205;47.984;7.668;2022-09-01T01:06:30;12.50;;;8.87;;
2388;SDS011;1205;47.984;7.668;2022-09-01T01:08:58;11.27;;;8.33;;
2388;SDS011;1205;47.984;7.668;2022-09-01T01:11:26;11.20;;;7.83;;
2388;SDS011;1205;47.984;7.668;2022-09-01T01:13:58;9.43;;;7.93;;
2388;SDS011;1205;47.984;7.668;2022-09-01T01:16:40;10.90;;;8.77;;
2388;SDS011;1205;47.984;7.668;2022-09-01T01:22:04;9.70;;;8.70;;
2388;SDS011;1205;47.984;7.668;2022-09-01T01:24:52;11.47;;;7.23;;
2388;SDS011;1205;47.984;7.668;2022-09-01T01:27:19;11.90;;;8.43;;
2388;SDS011;1205;47.984;7.668;2022-09-01T01:29:45;12.67;;;8.70;;
2388;SDS011;1205;47.984;7.668;2022-09-01T01:32:12;10.47;;;8.87;;
2388;SDS011;1205;47.984;7.668;2022-09-01T01:34:38;13.90;;;7.43;;
2388;SDS011;1205;47.984;7.668;2022-09-01T01:37:06;10.07;;;8.70;;
2388;SDS011;1205;47.984;7.668;2022-09-01T01:39:34;10.20;;;7.93;;
2388;SDS011;1205;47.984;7.668;2022-09-01T01:42:04;14.83;;;8.70;;
2388;SDS011;1205;47.984;7.668;2022-09-01T01:44:31;12.50;;;9.40;;
2388;SDS011;1205;47.984;7.668;2022-09-01T01:46:57;19.90;;;9.03;;
2388;SDS011;1205;47.984;7.668;2022-09-01T01:49:24;10.13;;;9.03;;
2388;SDS011;1205;47.984;7.668;2022-09-01T01:51:55;12.40;;;9.37;;
2388;SDS011;1205;47.984;7.668;2022-09-01T01:54:22;9.97;;;9.07;;
2388;SDS011;1205;47.984;7.668;2022-09-01T01:56:49;9.60;;;8.30;;
2388;SDS011;1205;47.984;7.668;2022-09-01T01:59:15;12.30;;;9.37;;
2388;SDS011;1205;47.984;7.668;2022-09-01T02:01:41;23.73;;;9.47;;
2388;SDS011;1205;47.984;7.668;2022-09-01T02:04:13;11.40;;;10.20;;
2388;SDS011;1205;47.984;7.668;2022-09-01T02:06:40;16.40;;;9.83;;
2388;SDS011;1205;47.984;7.668;2022-09-01T02:09:10;14.97;;;9.50;;
2388;SDS011;1205;47.984;7.668;2022-09-01T02:11:37;14.73;;;8.33;;
2388;SDS011;1205;47.984;7.668;2022-09-01T02:14:04;15.00;;;9.73;;
2388;SDS011;1205;47.984;7.668;2022-09-01T02:16:31;18.57;;;8.97;;
2388;SDS011;1205;47.984;7.668;2022-09-01T02:18:57;11.40;;;8.30;;
2388;SDS011;1205;47.984;7.668;2022-09-01T02:21:25;12.37;;;7.87;;
2388;SDS011;1205;47.984;7.668;2022-09-01T02:23:53;12.77;;;9.43;;
2388;SDS011;1205;47.984;7.668;2022-09-01T02:26:30;10.07;;;8.67;;
2388;SDS011;1205;47.984;7.668;2022-09-01T02:28:59;14.10;;;8.50;;
2388;SDS011;1205;47.984;7.668;2022-09-01T02:31:28;8.70;;;7.47;;
2388;SDS011;1205;47.984;7.668;2022-09-01T02:34:04;9.73;;;7.70;;
2388;SDS011;1205;47.984;7.668;2022-09-01T02:36:34;8.57;;;7.70;;
2388;SDS011;1205;47.984;7.668;2022-09-01T02:39:02;14.80;;;8.70;;
2388;SDS011;1205;47.984;7.668;2022-09-01T02:41:28;12.13;;;7.70;;
2388;SDS011;1205;47.984;7.668;2022-09-01T02:43:58;9.37;;;7.00;;
2388;SDS011;1205;47.984;7.668;2022-09-01T02:46:26;9.47;;;7.63;;
2388;SDS011;1205;47.984;7.668;2022-09-01T02:48:53;11.13;;;8.10;;
2388;SDS011;1205;47.984;7.668;2022-09-01T02:51:21;16.00;;;8.67;;
2388;SDS011;1205;47.984;7.668;2022-09-01T02:53:49;10.40;;;8.73;;
2388;SDS011;1205;47.984;7.668;2022-09-01T02:56:17;10.00;;;9.07;;
2388;SDS011;1205;47.984;7.668;2022-09-01T02:58:46;9.20;;;8.20;;
2388;SDS011;1205;47.984;7.668;2022-09-01T03:03:45;11.37;;;8.20;;
2388;SDS011;1205;47.984;7.668;2022-09-01T03:06:11;10.80;;;8.57;;
2388;SDS011;1205;47.984;7.668;2022-09-01T03:08:38;12.53;;;8.30;;
2388;SDS011;1205;47.984;7.668;2022-09-01T03:11:05;8.87;;;7.93;;
2388;SDS011;1205;47.984;7.668;2022-09-01T03:13:35;15.40;;;8.10;;
2388;SDS011;1205;47.984;7.668;2022-09-01T03:16:03;9.83;;;7.83;;
2388;SDS011;1205;47.984;7.668;2022-09-01T03:18:30;9.47;;;8.57;;
2388;SDS011;1205;47.984;7.668;2022-09-01T03:20:55;9.63;;;8.40;;
2388;SDS011;1205;47.984;7.668;2022-09-01T03:23:21;9.77;;;8.30;;
2388;SDS011;1205;47.984;7.668;2022-09-01T03:25:49;7.70;;;7.00;;
2388;SDS011;1205;47.984;7.668;2022-09-01T03:28:15;13.90;;;8.70;;
2388;SDS011;1205;47.984;7.668;2022-09-01T03:30:51;10.10;;;8.23;;
2388;SDS011;1205;47.984;7.668;2022-09-01T03:33:19;12.20;;;7.67;;
2388;SDS011;1205;47.984;7.668;2022-09-01T03:35:46;8.03;;;7.13;;
2388;SDS011;1205;47.984;7.668;2022-09-01T03:38:12;15.30;;;8.43;;
2388;SDS011;1205;47.984;7.668;2022-09-01T03:40:56;10.17;;;8.40;;
2388;SDS011;1205;47.984;7.668;2022-09-01T03:43:26;10.30;;;9.13;;
2388;SDS011;1205;47.984;7.668;2022-09-01T03:45:56;12.47;;;8.60;;
2388;SDS011;1205;47.984;7.668;2022-09-01T03:48:29;9.80;;;8.90;;
2388;SDS011;1205;47.984;7.668;2022-09-01T03:50:56;12.50;;;8.83;;
2388;SDS011;1205;47.984;7.668;2022-09-01T03:53:27;13.53;;;9.90;;
2388;SDS011;1205;47.984;7.668;2022-09-01T03:55:55;9.07;;;8.23;;
2388;SDS011;1205;47.984;7.668;2022-09-01T03:58:21;10.30;;;7.43;;
2388;SDS011;1205;47.984;7.668;2022-09-01T04:00:49;11.00;;;8.57;;
2388;SDS011;1205;47.984;7.668;2022-09-01T04:03:19;9.80;;;8.00;;
2388;SDS011;1205;47.984;7.668;2022-09-01T04:05:50;17.83;;;9.63;;
2388;SDS011;1205;47.984;7.668;2022-09-01T04:08:17;12.83;;;9.07;;
2388;SDS011;1205;47.984;7.668;2022-09-01T04:13:30;18.20;;;10.30;;
2388;SDS011;1205;47.984;7.668;2022-09-01T04:15:59;9.57;;;8.13;;
2388;SDS011;1205;47.984;7.668;2022-09-01T04:18:25;13.10;;;8.33;;
2388;SDS011;1205;47.984;7.668;2022-09-01T04:20:51;14.00;;;8.00;;
2388;SDS011;1205;47.984;7.668;2022-09-01T04:25:58;14.13;;;8.93;;
2388;SDS011;1205;47.984;7.668;2022-09-01T04:28:42;10.07;;;9.00;;
2388;SDS011;1205;47.984;7.668;2022-09-01T04:31:11;18.37;;;10.73;;
2388;SDS011;1205;47.984;7.668;2022-09-01T04:33:41;14.10;;;10.33;;
2388;SDS011;1205;47.984;7.668;2022-09-01T04:38:55;20.83;;;11.67;;
2388;SDS011;1205;47.984;7.668;2022-09-01T04:41:24;16.57;;;12.60;;
2388;SDS011;1205;47.984;7.668;2022-09-01T04:43:51;18.13;;;11.07;;
2388;SDS011;1205;47.984;7.668;2022-09-01T04:46:21;13.70;;;9.77;;
2388;SDS011;1205;47.984;7.668;2022-09-01T04:48:50;12.27;;;10.97;;
2388;SDS011;1205;47.984;7.668;2022-09-01T04:51:17;14.03;;;10.90;;
2388;SDS011;1205;47.984;7.668;2022-09-01T04:53:44;12.90;;;10.33;;
2388;SDS011;1205;47.984;7.668;2022-09-01T04:56:13;12.50;;;11.07;;
2388;SDS011;1205;47.984;7.668;2022-09-01T04:58:45;11.23;;;9.50;;
2388;SDS011;1205;47.984;7.668;2022-09-01T05:01:13;13.83;;;10.60;;
2388;SDS011;1205;47.984;7.668;2022-09-01T05:03:40;11.80;;;10.47;;
2388;SDS011;1205;47.984;7.668;2022-09-01T05:06:11;12.70;;;9.30;;
2388;SDS011;1205;47.984;7.668;2022-09-01T05:08:41;34.00;;;20.83;;
2388;SDS011;1205;47.984;7.668;2022-09-01T05:11:09;37.13;;;26.90;;
2388;SDS011;1205;47.984;7.668;2022-09-01T05:13:36;12.17;;;10.63;;
2388;SDS011;1205;47.984;7.668;2022-09-01T05:16:05;15.80;;;12.13;;
2388;SDS011;1205;47.984;7.668;2022-09-01T05:18:40;10.70;;;9.53;;
2388;SDS011;1205;47.984;7.668;2022-09-01T05:21:09;30.33;;;11.47;;
2388;SDS011;1205;47.984;7.668;2022-09-01T05:23:38;17.70;;;13.77;;
2388;SDS011;1205;47.984;7.668;2022-09-01T05:26:05;23.57;;;16.97;;
2388;SDS011;1205;47.984;7.668;2022-09-01T05:28:40;26.47;;;15.90;;
2388;SDS011;1205;47.984;7.668;2022-09-01T05:31:07;34.80;;;25.40;;
2388;SDS011;1205;47.984;7.668;2022-09-01T05:33:34;31.10;;;24.40;;
2388;SDS011;1205;47.984;7.668;2022-09-01T05:36:01;27.70;;;21.70;;
2388;SDS011;1205;47.984;7.668;2022-09-01T05:38:32;26.67;;;20.30;;
2388;SDS011;1205;47.984;7.668;2022-09-01T05:40:59;27.30;;;21.10;;
2388;SDS011;1205;47.984;7.668;2022-09-01T05:43:28;27.33;;;22.60;;
2388;SDS011;1205;47.984;7.668;2022-09-01T05:45:58;33.20;;;24.97;;
2388;SDS011;1205;47.984;7.668;2022-09-01T05:48:24;30.07;;;22.23;;
2388;SDS011;1205;47.984;7.668;2022-09-01T05:50:52;32.23;;;24.30;;
2388;SDS011;1205;47.984;7.668;2022-09-01T05:53:22;27.17;;;19.40;;
2388;SDS011;1205;47.984;7.668;2022-09-01T05:55:49;33.73;;;23.97;;
2388;SDS011;1205;47.984;7.668;2022-09-01T05:58:21;27.67;;;22.83;;
2388;SDS011;1205;47.984;7.668;2022-09-01T06:00:49;24.10;;;18.70;;
2388;SDS011;1205;47.984;7.668;2022-09-01T06:03:17;27.13;;;21.27;;
2388;SDS011;1205;47.984;7.668;2022-09-01T06:05:43;25.40;;;21.77;;
2388;SDS011;1205;47.984;7.668;2022-09-01T06:08:12;30.83;;;22.60;;
2388;SDS011;1205;47.984;7.668;2022-09-01T06:10:39;25.30;;;20.13;;
2388;SDS011;1205;47.984;7.668;2022-09-01T06:13:06;35.63;;;23.30;;
2388;SDS011;1205;47.984;7.668;2022-09-01T06:15:33;35.90;;;24.90;;
2388;SDS011;1205;47.984;7.668;2022-09-01T06:18:03;25.90;;;20.83;;
2388;SDS011;1205;47.984;7.668;2022-09-01T06:20:30;29.50;;;23.93;;
2388;SDS011;1205;47.984;7.668;2022-09-01T06:22:55;38.43;;;24.80;;
2388;SDS011;1205;47.984;7.668;2022-09-01T06:25:21;32.57;;;21.57;;
2388;SDS011;1205;47.984;7.668;2022-09-01T06:27:47;28.03;;;21.10;;
2388;SDS011;1205;47.984;7.668;2022-09-01T06:30:14;29.50;;;23.07;;
2388;SDS011;1205;47.984;7.668;2022-09-01T06:32:50;30.10;;;22.40;;
2388;SDS011;1205;47.984;7.668;2022-09-01T06:35:17;40.43;;;23.27;;
2388;SDS011;1205;47.984;7.668;2022-09-01T06:37:43;32.43;;;23.43;;
2388;SDS011;1205;47.984;7.668;2022-09-01T06:40:11;28.47;;;22.97;;
2388;SDS011;1205;47.984;7.668;2022-09-01T06:42:48;29.97;;;22.33;;
2388;SDS011;1205;47.984;7.668;2022-09-01T06:45:16;34.27;;;23.73;;
2388;SDS011;1205;47.984;7.668;2022-09-01T06:47:47;30.20;;;19.93;;
2388;SDS011;1205;47.984;7.668;2022-09-01T06:50:15;27.33;;;22.10;;
2388;SDS011;1205;47.984;7.668;2022-09-01T06:52:43;24.53;;;19.03;;
2388;SDS011;1205;47.984;7.668;2022-09-01T06:55:10;35.23;;;23.13;;
2388;SDS011;1205;47.984;7.668;2022-09-01T06:57:37;26.10;;;19.20;;
2388;SDS011;1205;47.984;7.668;2022-09-01T07:00:05;24.30;;;17.27;;
2388;SDS011;1205;47.984;7.668;2022-09-01T07:02:37;25.00;;;19.43;;
2388;SDS011;1205;47.984;7.668;2022-09-01T07:05:03;22.80;;;17.93;;
2388;SDS011;1205;47.984;7.668;2022-09-01T07:07:29;24.83;;;15.83;;
2388;SDS011;1205;47.984;7.668;2022-09-01T07:09:57;15.03;;;13.43;;
2388;SDS011;1205;47.984;7.668;2022-09-01T07:12:23;16.13;;;14.40;;
2388;SDS011;1205;47.984;7.668;2022-09-01T07:14:49;20.40;;;13.87;;
2388;SDS011;1205;47.984;7.668;2022-09-01T07:17:16;14.40;;;12.87;;
2388;SDS011;1205;47.984;7.668;2022-09-01T07:19:42;13.77;;;12.33;;
2388;SDS011;1205;47.984;7.668;2022-09-01T07:22:07;14.63;;;11.30;;
2388;SDS011;1205;47.984;7.668;2022-09-01T07:24:34;15.57;;;13.23;;
2388;SDS011;1205;47.984;7.668;2022-09-01T07:27:00;12.93;;;11.63;;
2388;SDS011;1205;47.984;7.668;2022-09-01T07:29:25;12.40;;;11.20;;
2388;SDS011;1205;47.984;7.668;2022-09-01T07:31:52;17.10;;;11.83;;
2388;SDS011;1205;47.984;7.668;2022-09-01T07:34:19;15.07;;;10.53;;
2388;SDS011;1205;47.984;7.668;2022-09-01T07:36:45;12.03;;;10.73;;
2388;SDS011;1205;47.984;7.668;2022-09-01T07:39:12;12.73;;;11.00;;
2388;SDS011;1205;47.984;7.668;2022-09-01T07:41:38;14.60;;;12.50;;
2388;SDS011;1205;47.984;7.668;2022-09-01T07:44:06;11.83;;;10.63;;
2388;SDS011;1205;47.984;7.668;2022-09-01T07:46:34;13.97;;;12.70;;
2388;SDS011;1205;47.984;7.668;2022-09-01T07:49:00;14.67;;;10.83;;
2388;SDS011;1205;47.984;7.668;2022-09-01T07:51:26;12.10;;;10.80;;
2388;SDS011;1205;47.984;7.668;2022-09-01T07:53:53;13.93;;;12.27;;
2388;SDS011;1205;47.984;7.668;2022-09-01T07:56:21;13.00;;;11.70;;
2388;SDS011;1205;47.984;7.668;2022-09-01T07:58:48;16.17;;;13.97;;
2388;SDS011;1205;47.984;7.668;2022-09-01T08:01:16;15.80;;;14.17;;
2388;SDS011;1205;47.984;7.668;2022-09-01T08:03:45;21.77;;;15.83;;
2388;SDS011;1205;47.984;7.668;2022-09-01T08:06:14;15.90;;;13.77;;
2388;SDS011;1205;47.984;7.668;2022-09-01T08:08:43;15.70;;;14.03;;
2388;SDS011;1205;47.984;7.668;2022-09-01T08:11:09;15.37;;;13.40;;
2388;SDS011;1205;47.984;7.668;2022-09-01T08:13:41;19.17;;;13.77;;
2388;SDS011;1205;47.984;7.668;2022-09-01T08:16:07;16.37;;;13.60;;
2388;SDS011;1205;47.984;7.668;2022-09-01T08:18:34;16.80;;;13.00;;
2388;SDS011;1205;47.984;7.668;2022-09-01T08:21:04;16.63;;;14.77;;
2388;SDS011;1205;47.984;7.668;2022-09-01T08:23:34;19.40;;;14.40;;
2388;SDS011;1205;47.984;7.668;2022-09-01T08:26:08;16.43;;;14.73;;
2388;SDS011;1205;47.984;7.668;2022-09-01T08:28:38;16.13;;;13.83;;
2388;SDS011;1205;47.984;7.668;2022-09-01T08:31:06;19.10;;;14.20;;
2388;SDS011;1205;47.984;7.668;2022-09-01T08:33:34;16.70;;;14.17;;
2388;SDS011;1205;47.984;7.668;2022-09-01T08:36:08;15.40;;;13.13;;
2388;SDS011;1205;47.984;7.668;2022-09-01T08:38:35;17.63;;;13.93;;
2388;SDS011;1205;47.984;7.668;2022-09-01T08:41:01;17.53;;;13.07;;
2388;SDS011;1205;47.984;7.668;2022-09-01T08:46:08;14.43;;;12.57;;
2388;SDS011;1205;47.984;7.668;2022-09-01T08:48:45;18.40;;;15.60;;
2388;SDS011;1205;47.984;7.668;2022-09-01T08:54:08;15.80;;;14.20;;
2388;SDS011;1205;47.984;7.668;2022-09-01T08:56:42;14.70;;;13.20;;
2388;SDS011;1205;47.984;7.668;2022-09-01T08:59:09;14.10;;;12.73;;
2388;SDS011;1205;47.984;7.668;2022-09-01T09:07:23;21.30;;;15.30;;
2388;SDS011;1205;47.984;7.668;2022-09-01T09:10:13;18.23;;;14.30;;
2388;SDS011;1205;47.984;7.668;2022-09-01T09:13:13;15.47;;;13.80;;
2388;SDS011;1205;47.984;7.668;2022-09-01T09:16:02;17.63;;;14.53;;
2388;SDS011;1205;47.984;7.668;2022-09-01T09:18:44;19.50;;;15.90;;
2388;SDS011;1205;47.984;7.668;2022-09-01T09:21:17;19.10;;;15.67;;
2388;SDS011;1205;47.984;7.668;2022-09-01T09:26:51;18.60;;;15.77;;
2388;SDS011;1205;47.984;7.668;2022-09-01T09:29:19;15.60;;;13.93;;
2388;SDS011;1205;47.984;7.668;2022-09-01T09:31:46;15.67;;;14.03;;
2388;SDS011;1205;47.984;7.668;2022-09-01T09:34:17;15.60;;;14.10;;
2388;SDS011;1205;47.984;7.668;2022-09-01T09:36:51;19.70;;;13.80;;
2388;SDS011;1205;47.984;7.668;2022-09-01T09:39:17;15.10;;;11.80;;
2388;SDS011;1205;47.984;7.668;2022-09-01T09:41:43;27.20;;;14.27;;
2388;SDS011;1205;47.984;7.668;2022-09-01T09:44:38;18.80;;;13.20;;
2388;SDS011;1205;47.984;7.668;2022-09-01T09:47:09;16.10;;;11.80;;
2388;SDS011;1205;47.984;7.668;2022-09-01T09:53:25;10.57;;;9.57;;
2388;SDS011;1205;47.984;7.668;2022-09-01T09:55:59;17.93;;;12.47;;
2388;SDS011;1205;47.984;7.668;2022-09-01T09:58:34;14.23;;;12.77;;
2388;SDS011;1205;47.984;7.668;2022-09-01T10:01:04;21.67;;;14.27;;
2388;SDS011;1205;47.984;7.668;2022-09-01T10:03:44;14.23;;;12.17;;
2388;SDS011;1205;47.984;7.668;2022-09-01T10:06:32;20.00;;;15.30;;
2388;SDS011;1205;47.984;7.668;2022-09-01T10:11:52;14.50;;;11.90;;
2388;SDS011;1205;47.984;7.668;2022-09-01T10:14:30;17.10;;;11.57;;
2388;SDS011;1205;47.984;7.668;2022-09-01T10:17:03;17.57;;;13.77;;
2388;SDS011;1205;47.984;7.668;2022-09-01T10:19:34;17.97;;;11.43;;
2388;SDS011;1205;47.984;7.668;2022-09-01T10:22:04;11.47;;;10.30;;
2388;SDS011;1205;47.984;7.668;2022-09-01T10:24:33;15.43;;;10.60;;
2388;SDS011;1205;47.984;7.668;2022-09-01T10:27:02;23.90;;;10.37;;
2388;SDS011;1205;47.984;7.668;2022-09-01T10:29:45;9.80;;;8.63;;
2388;SDS011;1205;47.984;7.668;2022-09-01T10:32:24;15.60;;;9.97;;
2388;SDS011;1205;47.984;7.668;2022-09-01T10:34:53;12.53;;;8.73;;
2388;SDS011;1205;47.984;7.668;2022-09-01T10:37:19;10.50;;;9.50;;
2388;SDS011;1205;47.984;7.668;2022-09-01T10:45:46;10.70;;;7.87;;
2388;SDS011;1205;47.984;7.668;2022-09-01T10:53:42;13.40;;;7.20;;
2388;SDS011;1205;47.984;7.668;2022-09-01T10:56:16;8.53;;;7.40;;
2388;SDS011;1205;47.984;7.668;2022-09-01T11:17:30;10.10;;;6.50;;
2388;SDS011;1205;47.984;7.668;2022-09-01T11:23:04;6.10;;;5.40;;
2388;SDS011;1205;47.984;7.668;2022-09-01T11:25:40;5.33;;;5.03;;
2388;SDS011;1205;47.984;7.668;2022-09-01T11:30:44;7.17;;;6.50;;
2388;SDS011;1205;47.984;7.668;2022-09-01T11:41:32;6.17;;;5.60;;
2388;SDS011;1205;47.984;7.668;2022-09-01T11:44:22;5.23;;;4.90;;
2388;SDS011;1205;47.984;7.668;2022-09-01T11:46:50;7.87;;;5.57;;
2388;SDS011;1205;47.984;7.668;2022-09-01T11:49:29;5.30;;;4.80;;
2388;SDS011;1205;47.984;7.668;2022-09-01T11:51:59;4.33;;;4.00;;
2388;SDS011;1205;47.984;7.668;2022-09-01T11:54:27;4.00;;;3.80;;
2388;SDS011;1205;47.984;7.668;2022-09-01T11:57:15;4.93;;;3.70;;
2388;SDS011;1205;47.984;7.668;2022-09-01T11:59:52;4.40;;;4.10;;
2388;SDS011;1205;47.984;7.668;2022-09-01T12:02:42;4.77;;;4.37;;
2388;SDS011;1205;47.984;7.668;2022-09-01T12:05:25;10.00;;;4.00;;
2388;SDS011;1205;47.984;7.668;2022-09-01T12:07:56;4.43;;;3.97;;
2388;SDS011;1205;47.984;7.668;2022-09-01T12:10:26;5.40;;;4.00;;
2388;SDS011;1205;47.984;7.668;2022-09-01T12:15:26;3.57;;;3.37;;
2388;SDS011;1205;47.984;7.668;2022-09-01T12:17:52;4.27;;;3.97;;
2388;SDS011;1205;47.984;7.668;2022-09-01T12:20:34;4.00;;;3.70;;
2388;SDS011;1205;47.984;7.668;2022-09-01T12:23:03;3.90;;;3.70;;
2388;SDS011;1205;47.984;7.668;2022-09-01T12:25:56;4.17;;;3.67;;
2388;SDS011;1205;47.984;7.668;2022-09-01T12:28:26;5.20;;;4.00;;
2388;SDS011;1205;47.984;7.668;2022-09-01T12:30:58;3.63;;;3.43;;
2388;SDS011;1205;47.984;7.668;2022-09-01T12:33:26;3.90;;;3.70;;
2388;SDS011;1205;47.984;7.668;2022-09-01T12:36:11;4.47;;;3.90;;
2388;SDS011;1205;47.984;7.668;2022-09-01T12:42:09;3.73;;;3.53;;
2388;SDS011;1205;47.984;7.668;2022-09-01T12:47:05;4.67;;;3.47;;
2388;SDS011;1205;47.984;7.668;2022-09-01T12:49:42;3.50;;;3.30;;
2388;SDS011;1205;47.984;7.668;2022-09-01T12:57:28;3.07;;;2.80;;
2388;SDS011;1205;47.984;7.668;2022-09-01T13:02:45;3.83;;;3.63;;
2388;SDS011;1205;47.984;7.668;2022-09-01T13:07:58;3.87;;;3.57;;
2388;SDS011;1205;47.984;7.668;2022-09-01T13:10:26;3.03;;;2.90;;
2388;SDS011;1205;47.984;7.668;2022-09-01T13:12:56;3.10;;;3.00;;
2388;SDS011;1205;47.984;7.668;2022-09-01T13:15:22;3.23;;;3.00;;
2388;SDS011;1205;47.984;7.668;2022-09-01T13:17:49;2.90;;;2.70;;
2388;SDS011;1205;47.984;7.668;2022-09-01T13:20:16;2.90;;;2.80;;
2388;SDS011;1205;47.984;7.668;2022-09-01T13:22:42;3.27;;;3.13;;
2388;SDS011;1205;47.984;7.668;2022-09-01T13:25:10;2.63;;;2.43;;
2388;SDS011;1205;47.984;7.668;2022-09-01T13:27:37;3.03;;;2.93;;
2388;SDS011;1205;47.984;7.668;2022-09-01T13:30:08;3.10;;;2.90;;
2388;SDS011;1205;47.984;7.668;2022-09-01T13:32:35;3.80;;;2.43;;
2388;SDS011;1205;47.984;7.668;2022-09-01T13:35:01;2.80;;;2.60;;
2388;SDS011;1205;47.984;7.668;2022-09-01T13:37:27;3.10;;;3.00;;
2388;SDS011;1205;47.984;7.668;2022-09-01T13:39:53;2.97;;;2.77;;
2388;SDS011;1205;47.984;7.668;2022-09-01T13:42:18;2.83;;;2.73;;
2388;SDS011;1205;47.984;7.668;2022-09-01T13:44:44;2.50;;;2.40;;
2388;SDS011;1205;47.984;7.668;2022-09-01T13:47:11;2.73;;;2.50;;
2388;SDS011;1205;47.984;7.668;2022-09-01T13:49:37;3.10;;;2.90;;
2388;SDS011;1205;47.984;7.668;2022-09-01T13:52:03;2.50;;;2.50;;
2388;SDS011;1205;47.984;7.668;2022-09-01T13:54:29;2.70;;;2.60;;
2388;SDS011;1205;47.984;7.668;2022-09-01T13:56:54;2.40;;;2.37;;
2388;SDS011;1205;47.984;7.668;2022-09-01T13:59:20;2.70;;;2.60;;
2388;SDS011;1205;47.984;7.668;2022-09-01T14:01:46;2.43;;;2.40;;
2388;SDS011;1205;47.984;7.668;2022-09-01T14:04:12;2.80;;;2.70;;
2388;SDS011;1205;47.984;7.668;2022-09-01T14:06:40;2.70;;;2.60;;
2388;SDS011;1205;47.984;7.668;2022-09-01T14:09:12;2.77;;;2.67;;
2388;SDS011;1205;47.984;7.668;2022-09-01T14:11:38;2.73;;;2.53;;
2388;SDS011;1205;47.984;7.668;2022-09-01T14:14:03;3.13;;;3.03;;
2388;SDS011;1205;47.984;7.668;2022-09-01T14:16:30;2.83;;;2.73;;
2388;SDS011;1205;47.984;7.668;2022-09-01T14:18:56;3.20;;;2.97;;
2388;SDS011;1205;47.984;7.668;2022-09-01T14:21:24;3.73;;;2.70;;
2388;SDS011;1205;47.984;7.668;2022-09-01T14:23:50;3.17;;;2.97;;
2388;SDS011;1205;47.984;7.668;2022-09-01T14:26:16;3.40;;;3.10;;
2388;SDS011;1205;47.984;7.668;2022-09-01T14:28:43;2.90;;;2.70;;
2388;SDS011;1205;47.984;7.668;2022-09-01T14:31:12;2.63;;;2.53;;
2388;SDS011;1205;47.984;7.668;2022-09-01T14:33:39;2.30;;;2.20;;
2388;SDS011;1205;47.984;7.668;2022-09-01T14:36:06;3.00;;;2.80;;
2388;SDS011;1205;47.984;7.668;2022-09-01T14:38:32;2.90;;;2.80;;
2388;SDS011;1205;47.984;7.668;2022-09-01T14:40:59;2.60;;;2.40;;
2388;SDS011;1205;47.984;7.668;2022-09-01T14:43:25;2.77;;;2.67;;
2388;SDS011;1205;47.984;7.668;2022-09-01T14:46:00;2.70;;;2.60;;
2388;SDS011;1205;47.984;7.668;2022-09-01T14:48:31;3.03;;;2.57;;
2388;SDS011;1205;47.984;7.668;2022-09-01T14:50:57;2.30;;;2.27;;
2388;SDS011;1205;47.984;7.668;2022-09-01T14:53:25;3.00;;;2.80;;
2388;SDS011;1205;47.984;7.668;2022-09-01T14:55:52;3.40;;;1.97;;
2388;SDS011;1205;47.984;7.668;2022-09-01T14:58:18;2.70;;;2.50;;
2388;SDS011;1205;47.984;7.668;2022-09-01T15:00:44;2.37;;;2.27;;
2388;SDS011;1205;47.984;7.668;2022-09-01T15:03:09;2.83;;;2.70;;
2388;SDS011;1205;47.984;7.668;2022-09-01T15:05:36;2.83;;;2.47;;
2388;SDS011;1205;47.984;7.668;2022-09-01T15:08:01;2.27;;;2.17;;
2388;SDS011;1205;47.984;7.668;2022-09-01T15:10:27;3.23;;;2.20;;
2388;SDS011;1205;47.984;7.668;2022-09-01T15:12:55;2.90;;;2.70;;
2388;SDS011;1205;47.984;7.668;2022-09-01T15:15:22;2.80;;;2.30;;
2388;SDS011;1205;47.984;7.668;2022-09-01T15:17:48;2.50;;;2.40;;
2388;SDS011;1205;47.984;7.668;2022-09-01T15:20:14;2.13;;;2.03;;
2388;SDS011;1205;47.984;7.668;2022-09-01T15:22:58;3.27;;;2.23;;
2388;SDS011;1205;47.984;7.668;2022-09-01T15:25:25;2.50;;;2.40;;
2388;SDS011;1205;47.984;7.668;2022-09-01T15:27:51;2.93;;;2.73;;
2388;SDS011;1205;47.984;7.668;2022-09-01T15:30:17;2.17;;;2.17;;
2388;SDS011;1205;47.984;7.668;2022-09-01T15:32:44;2.77;;;2.60;;
2388;SDS011;1205;47.984;7.668;2022-09-01T15:35:11;2.33;;;2.23;;
2388;SDS011;1205;47.984;7.668;2022-09-01T15:37:37;2.00;;;2.00;;
2388;SDS011;1205;47.984;7.668;2022-09-01T15:40:04;2.50;;;2.30;;
2388;SDS011;1205;47.984;7.668;2022-09-01T15:42:33;2.63;;;2.43;;
2388;SDS011;1205;47.984;7.668;2022-09-01T15:45:00;2.23;;;2.00;;
2388;SDS011;1205;47.984;7.668;2022-09-01T15:47:28;2.37;;;2.23;;
2388;SDS011;1205;47.984;7.668;2022-09-01T15:49:54;2.23;;;2.13;;
2388;SDS011;1205;47.984;7.668;2022-09-01T15:52:20;2.43;;;2.20;;
2388;SDS011;1205;47.984;7.668;2022-09-01T15:54:45;3.90;;;2.40;;
2388;SDS011;1205;47.984;7.668;2022-09-01T15:57:11;1.97;;;1.90;;
2388;SDS011;1205;47.984;7.668;2022-09-01T15:59:36;1.60;;;1.50;;
2388;SDS011;1205;47.984;7.668;2022-09-01T16:02:05;2.40;;;1.50;;
2388;SDS011;1205;47.984;7.668;2022-09-01T16:04:31;1.60;;;1.57;;
2388;SDS011;1205;47.984;7.668;2022-09-01T16:06:57;1.43;;;1.40;;
2388;SDS011;1205;47.984;7.668;2022-09-01T16:09:23;1.70;;;1.70;;
2388;SDS011;1205;47.984;7.668;2022-09-01T16:11:50;1.40;;;1.40;;
2388;SDS011;1205;47.984;7.668;2022-09-01T16:14:16;2.30;;;1.93;;
2388;SDS011;1205;47.984;7.668;2022-09-01T16:19:19;1.80;;;1.70;;
2388;SDS011;1205;47.984;7.668;2022-09-01T16:24:28;1.60;;;1.60;;
2388;SDS011;1205;47.984;7.668;2022-09-01T16:26:54;2.17;;;2.07;;
2388;SDS011;1205;47.984;7.668;2022-09-01T16:29:27;5.43;;;1.70;;
2388;SDS011;1205;47.984;7.668;2022-09-01T16:32:03;2.10;;;2.00;;
2388;SDS011;1205;47.984;7.668;2022-09-01T16:34:29;1.60;;;1.50;;
2388;SDS011;1205;47.984;7.668;2022-09-01T16:37:20;2.97;;;1.67;;
2388;SDS011;1205;47.984;7.668;2022-09-01T16:48:50;2.50;;;2.07;;
2388;SDS011;1205;47.984;7.668;2022-09-01T16:51:37;2.10;;;2.00;;
2388;SDS011;1205;47.984;7.668;2022-09-01T16:54:56;2.13;;;2.03;;
2388;SDS011;1205;47.984;7.668;2022-09-01T16:57:29;2.17;;;2.07;;
2388;SDS011;1205;47.984;7.668;2022-09-01T17:00:10;4.50;;;2.40;;
2388;SDS011;1205;47.984;7.668;2022-09-01T17:02:57;2.10;;;2.03;;
2388;SDS011;1205;47.984;7.668;2022-09-01T17:13:28;2.43;;;2.27;;
2388;SDS011;1205;47.984;7.668;2022-09-01T17:18:45;1.50;;;1.50;;